Anderson, IN (46012)

1:28 AM EDT on August 29, 2014 (GMT -0400)
KB9VE-2, 240N/200E | Change Station
CLOSE
Current Station
Personal Weather Station
Location: Anderson, IN
Elevation: 895 ft
Nearby Weather Stations

Elev 895 ft 40.14 °N, 85.63 °W | Updated 1 second ago

Clear
Clear
67.4 °F
Feels Like 67.4 °F
N
0.0
Wind Variable Wind from East
Gusts 1.0 mph

Today
High -- | Low -- °F
--% Chance of Precip.
Yesterday
High -- | Low -- °F
Precip. -- in
7:07 AM 8:18 PM
Waxing Crescent, 12% visible
Pressure 30.07 in
Visibility 10.0 miles
Clouds Clear
Dew Point 63 °F
Humidity 86%
Rainfall 0.00 in
Snow Depth Not available.
UV 0 out of 12
Pollen 10.40 out of 12
Ozone Good
PM2.5 Good
Flu Activity Not available.
METAR KMIE 290453Z AUTO 12006KT 10SM CLR 19/16 A3009 RMK AO2 SLP181 T01890161 402720167

More Conditions Fewer Conditions

Pressure 30.07 in
Visibility 10.0 miles
Clouds Clear
Dew Point 63 °F
Humidity 86%
Rainfall 0.00 in
Snow Depth Not available.
UV 0 out of 12
Pollen 10.40 out of 12
Ozone Good
PM2.5 Good
Flu Activity Not available.
METAR KMIE 290453Z AUTO 12006KT 10SM CLR 19/16 A3009 RMK AO2 SLP181 T01890161 402720167

More Conditions Fewer Conditions

10-Day Weather Forecast

Almanac

Astronomy

Aug. 29, 2014 Rise Set
Actual Time 7:07 AM EDT 8:18 PM EDT
Civil Twilight 6:39 AM EDT 8:46 PM EDT
Nautical Twilight 6:05 AM EDT 9:20 PM EDT
Astronomical Twilight 5:30 AM EDT 9:55 PM EDT
Moon 10:56 AM EDT 10:15 PM EDT
Length of Visible Light 14h 07m
Length of Day
13h 11m
Tomorrow will be 2m 30s shorter.
Waxing Crescent, 12% of the Moon is Illuminated
Today
Waxing Crescent
Sep 2
First Quarter
Sep 8
Full
Sep 15
Last Quarter
Sep 24
New

Today's Extremes

State Highs State Lows

Community

WunderPhotos

Upload Photos

1,748,192 photos uploaded!

Nearby

Air Quality

  Air Quality AQ Index Pollutant
Yesterday Good
PM10
Yesterday Good
OZONE
Current Good
PM2.5
Current Good
OZONE
Thursday Moderate
PM2.5
Thursday Good
OZONE
Friday Moderate
PM2.5
Friday Moderate
OZONE

Snow Depth

Station Depth Elevation
No new snow has been reported.

Earthquake Activity

City Distance Mag. Time & Date
No recent earthquake activity has been reported nearby.
Minimum magnitude displayed is 2.5.

Coastal Water Temperatures

Place Temperature
No Stations Reporting

Nearby Weather Stations